EFRO Airport Information

Runway Information
Runway 03 Length 9849 ft width 197 ft
Elevation 633 ft Threshold ft Heading 37
Runway 21 Length 9849 ft Width 197 ft
Elevation 609 ft Threshold ft Heading 217
Airport Frequencies
Type APP Name APP Frequency 125.8 MHZ
Type ATIS Name ATIS Frequency 117.7 MHZ
Type GND Name GND Frequency 118.525 MHZ
Type PMSV Name PMSV METRO Frequency 125.1 MHZ
Type TWR Name TWR Frequency 118.7 MHZ
Airport Navaids
Type NDB Name Papa-Alfa Frequency 377 KHZ
Type VOR-DME Name Rovani Frequency 117700 KHZ
Type NDB Name Toramo Frequency 416 KHZ
Airport Weather Information & NOTAM
ADDS - METARS form results

(1756 UTC 10 June 2023)
Data provider http://aviationweather.gov/metar/data/
 
METAR text: EFRO 101750Z AUTO 22015KT CAVOK 13/01 Q1024
Conditions at: EFRO (ROVANIEMI (CIV/M, FI) observed 1750 UTC 10 June 2023
Temperature: 13.0°C (55°F)
Dewpoint: 1.0°C (34°F) [RH = 44%]
Pressure (altimeter): 30.24 inches Hg (1024.0 mb)
Winds: from the SW (220 degrees) at 17 MPH (15 knots; 7.7 m/s)
Visibility: 6 or more miles (10+ km)
Ceiling: ceiling and visibility are OK
Clouds: unknown
Weather: no significant weather observed at this time

METAR text: EFRO 101720Z AUTO 22015KT CAVOK 13/00 Q1025
Conditions at: EFRO (ROVANIEMI (CIV/M, FI) observed 1720 UTC 10 June 2023
Temperature: 13.0°C (55°F)
Dewpoint: 0.0°C (32°F) [RH = 41%]
Pressure (altimeter): 30.27 inches Hg (1025.0 mb)
Winds: from the SW (220 degrees) at 17 MPH (15 knots; 7.7 m/s)
Visibility: 6 or more miles (10+ km)
Ceiling: ceiling and visibility are OK
Clouds: unknown
Weather: no significant weather observed at this time

Forecast for: EFRO (ROVANIEMI (CIV/M, FI)
Text: TAF EFRO 101730Z 1018/1118 22014KT CAVOK
Forecast period: 1800 UTC 10 June 2023 to 1800 UTC 11 June 2023
Forecast type: FROM: standard forecast or significant change
Winds: from the SW (220 degrees) at 16 MPH (14 knots; 7.2 m/s)
Visibility: 6 or more miles (10+ km)
Ceiling: unknown
Clouds: missing
Weather: NSW  (no significant weather)
Text: PROB40
Forecast period: 1200 to 1800 UTC 11 June 2023
Forecast type: TEMPORARY: The following changes expected for less than half the time period
Winds: from the SW (220 degrees) at 17 MPH (15 knots; 7.7 m/s)
gusting to 29 MPH (25 knots; 12.9 m/s)
Visibility: missing
Ceiling: unknown
Clouds: missing
Weather: no significant weather forecast for this period